Tsabong, Botswana
Current Conditions -  °F | °C
As of 2:00 PM on Tuesday 21 Oct 2014 (Local Time) from FAUP Reporting Station
Clear Clear  
Wind Chill: 93°   Ceiling: Unl
Heat Index: 93°   Visibility: 6mi
Dew Point: 23°   Wind: 5mph
Humidity: 8%   Direction: 230°SW
Pressure: 29.94"   Gusts: NA
Location:  26.01°S, 22.4°E
Report Text: FAUP 211200Z 23004KT CAVOK 34/M05 Q1014 NOSIG
Loading
Personal Weather Stations






























Interactive Weather Map
Tropical Storm Tracking
New forecast layout! Learn more

10-Day Weather Forecast

Advertisements
Track Severe Weather on mobile